sensor_id;sensor_type;location;lat;lon;timestamp;P1;durP1;ratioP1;P2;durP2;ratioP2
23632;SDS011;11993;48.748;9.166;2023-03-19T00:01:13;8.68;;;2.90;;
23632;SDS011;11993;48.748;9.166;2023-03-19T00:03:39;8.35;;;3.13;;
23632;SDS011;11993;48.748;9.166;2023-03-19T00:06:05;7.70;;;2.88;;
23632;SDS011;11993;48.748;9.166;2023-03-19T00:08:31;4.93;;;2.65;;
23632;SDS011;11993;48.748;9.166;2023-03-19T00:10:56;9.07;;;2.85;;
23632;SDS011;11993;48.748;9.166;2023-03-19T00:13:22;8.95;;;3.42;;
23632;SDS011;11993;48.748;9.166;2023-03-19T00:15:47;7.38;;;2.72;;
23632;SDS011;11993;48.748;9.166;2023-03-19T00:18:13;8.80;;;2.58;;
23632;SDS011;11993;48.748;9.166;2023-03-19T00:20:39;4.20;;;2.20;;
23632;SDS011;11993;48.748;9.166;2023-03-19T00:23:04;7.30;;;2.28;;
23632;SDS011;11993;48.748;9.166;2023-03-19T00:25:30;5.88;;;2.40;;
23632;SDS011;11993;48.748;9.166;2023-03-19T00:27:56;5.57;;;2.30;;
23632;SDS011;11993;48.748;9.166;2023-03-19T00:30:22;8.20;;;2.50;;
23632;SDS011;11993;48.748;9.166;2023-03-19T00:32:48;9.52;;;2.40;;
23632;SDS011;11993;48.748;9.166;2023-03-19T00:35:13;6.75;;;2.42;;
23632;SDS011;11993;48.748;9.166;2023-03-19T00:37:39;7.00;;;2.60;;
23632;SDS011;11993;48.748;9.166;2023-03-19T00:40:08;8.15;;;2.75;;
23632;SDS011;11993;48.748;9.166;2023-03-19T00:42:36;4.63;;;2.38;;
23632;SDS011;11993;48.748;9.166;2023-03-19T00:45:02;4.53;;;1.85;;
23632;SDS011;11993;48.748;9.166;2023-03-19T00:47:28;9.45;;;2.13;;
23632;SDS011;11993;48.748;9.166;2023-03-19T00:49:53;8.40;;;2.55;;
23632;SDS011;11993;48.748;9.166;2023-03-19T00:52:19;5.53;;;2.13;;
23632;SDS011;11993;48.748;9.166;2023-03-19T00:54:45;7.82;;;2.80;;
23632;SDS011;11993;48.748;9.166;2023-03-19T00:57:10;3.85;;;2.28;;
23632;SDS011;11993;48.748;9.166;2023-03-19T00:59:36;3.88;;;2.15;;
23632;SDS011;11993;48.748;9.166;2023-03-19T01:02:02;6.25;;;1.98;;
23632;SDS011;11993;48.748;9.166;2023-03-19T01:04:28;5.18;;;2.20;;
23632;SDS011;11993;48.748;9.166;2023-03-19T01:06:53;4.28;;;2.15;;
23632;SDS011;11993;48.748;9.166;2023-03-19T01:09:19;5.03;;;2.42;;
23632;SDS011;11993;48.748;9.166;2023-03-19T01:11:45;4.68;;;2.40;;
23632;SDS011;11993;48.748;9.166;2023-03-19T01:14:10;4.68;;;2.30;;
23632;SDS011;11993;48.748;9.166;2023-03-19T01:16:36;5.70;;;2.35;;
23632;SDS011;11993;48.748;9.166;2023-03-19T01:19:02;7.38;;;2.30;;
23632;SDS011;11993;48.748;9.166;2023-03-19T01:21:27;4.75;;;2.42;;
23632;SDS011;11993;48.748;9.166;2023-03-19T01:23:55;6.75;;;2.15;;
23632;SDS011;11993;48.748;9.166;2023-03-19T01:26:21;6.90;;;2.40;;
23632;SDS011;11993;48.748;9.166;2023-03-19T01:28:47;3.95;;;2.20;;
23632;SDS011;11993;48.748;9.166;2023-03-19T01:31:12;6.53;;;2.55;;
23632;SDS011;11993;48.748;9.166;2023-03-19T01:33:38;7.82;;;2.92;;
23632;SDS011;11993;48.748;9.166;2023-03-19T01:36:04;6.00;;;2.53;;
23632;SDS011;11993;48.748;9.166;2023-03-19T01:38:30;8.05;;;2.80;;
23632;SDS011;11993;48.748;9.166;2023-03-19T01:40:56;8.88;;;3.38;;
23632;SDS011;11993;48.748;9.166;2023-03-19T01:43:25;7.22;;;2.83;;
23632;SDS011;11993;48.748;9.166;2023-03-19T01:45:59;3.83;;;2.30;;
23632;SDS011;11993;48.748;9.166;2023-03-19T01:50:58;4.45;;;2.40;;
23632;SDS011;11993;48.748;9.166;2023-03-19T01:53:26;5.80;;;2.72;;
23632;SDS011;11993;48.748;9.166;2023-03-19T01:55:56;4.88;;;2.47;;
23632;SDS011;11993;48.748;9.166;2023-03-19T01:58:26;7.80;;;2.53;;
23632;SDS011;11993;48.748;9.166;2023-03-19T02:00:53;4.00;;;2.22;;
23632;SDS011;11993;48.748;9.166;2023-03-19T02:03:20;4.85;;;2.70;;
23632;SDS011;11993;48.748;9.166;2023-03-19T02:05:46;6.20;;;2.67;;
23632;SDS011;11993;48.748;9.166;2023-03-19T02:08:15;4.30;;;2.45;;
23632;SDS011;11993;48.748;9.166;2023-03-19T02:10:43;2.95;;;2.20;;
23632;SDS011;11993;48.748;9.166;2023-03-19T02:13:11;3.72;;;2.60;;
23632;SDS011;11993;48.748;9.166;2023-03-19T02:15:37;5.10;;;3.05;;
23632;SDS011;11993;48.748;9.166;2023-03-19T02:18:03;6.00;;;2.85;;
23632;SDS011;11993;48.748;9.166;2023-03-19T02:20:53;3.92;;;2.72;;
23632;SDS011;11993;48.748;9.166;2023-03-19T02:23:39;8.00;;;3.30;;
23632;SDS011;11993;48.748;9.166;2023-03-19T02:26:18;8.60;;;3.15;;
23632;SDS011;11993;48.748;9.166;2023-03-19T02:28:46;4.28;;;2.80;;
23632;SDS011;11993;48.748;9.166;2023-03-19T02:31:14;3.33;;;2.53;;
23632;SDS011;11993;48.748;9.166;2023-03-19T02:33:42;3.78;;;2.95;;
23632;SDS011;11993;48.748;9.166;2023-03-19T02:36:09;5.25;;;2.85;;
23632;SDS011;11993;48.748;9.166;2023-03-19T02:38:40;5.55;;;2.10;;
23632;SDS011;11993;48.748;9.166;2023-03-19T02:41:08;4.20;;;2.45;;
23632;SDS011;11993;48.748;9.166;2023-03-19T02:43:35;5.05;;;2.60;;
23632;SDS011;11993;48.748;9.166;2023-03-19T02:46:03;4.53;;;2.38;;
23632;SDS011;11993;48.748;9.166;2023-03-19T02:48:32;6.07;;;2.30;;
23632;SDS011;11993;48.748;9.166;2023-03-19T02:50:58;4.95;;;2.70;;
23632;SDS011;11993;48.748;9.166;2023-03-19T02:53:25;4.13;;;2.80;;
23632;SDS011;11993;48.748;9.166;2023-03-19T02:55:51;4.32;;;3.28;;
23632;SDS011;11993;48.748;9.166;2023-03-19T02:58:16;5.43;;;2.75;;
23632;SDS011;11993;48.748;9.166;2023-03-19T03:00:42;5.53;;;3.03;;
23632;SDS011;11993;48.748;9.166;2023-03-19T03:03:09;6.07;;;2.85;;
23632;SDS011;11993;48.748;9.166;2023-03-19T03:05:35;6.15;;;2.60;;
23632;SDS011;11993;48.748;9.166;2023-03-19T03:08:01;3.55;;;2.25;;
23632;SDS011;11993;48.748;9.166;2023-03-19T03:10:28;3.90;;;2.30;;
23632;SDS011;11993;48.748;9.166;2023-03-19T03:12:53;2.92;;;2.35;;
23632;SDS011;11993;48.748;9.166;2023-03-19T03:15:19;4.00;;;2.65;;
23632;SDS011;11993;48.748;9.166;2023-03-19T03:17:45;4.18;;;2.90;;
23632;SDS011;11993;48.748;9.166;2023-03-19T03:20:12;4.15;;;2.67;;
23632;SDS011;11993;48.748;9.166;2023-03-19T03:22:39;6.13;;;3.15;;
23632;SDS011;11993;48.748;9.166;2023-03-19T03:25:06;5.47;;;3.05;;
23632;SDS011;11993;48.748;9.166;2023-03-19T03:27:33;5.25;;;3.00;;
23632;SDS011;11993;48.748;9.166;2023-03-19T03:30:05;4.63;;;2.90;;
23632;SDS011;11993;48.748;9.166;2023-03-19T03:32:32;4.68;;;3.30;;
23632;SDS011;11993;48.748;9.166;2023-03-19T03:34:59;3.30;;;2.67;;
23632;SDS011;11993;48.748;9.166;2023-03-19T03:37:25;4.95;;;3.03;;
23632;SDS011;11993;48.748;9.166;2023-03-19T03:39:50;5.32;;;3.22;;
23632;SDS011;11993;48.748;9.166;2023-03-19T03:42:17;6.75;;;3.22;;
23632;SDS011;11993;48.748;9.166;2023-03-19T03:44:43;6.95;;;2.72;;
23632;SDS011;11993;48.748;9.166;2023-03-19T03:47:08;9.02;;;3.15;;
23632;SDS011;11993;48.748;9.166;2023-03-19T03:49:34;8.90;;;3.30;;
23632;SDS011;11993;48.748;9.166;2023-03-19T03:51:59;6.70;;;3.33;;
23632;SDS011;11993;48.748;9.166;2023-03-19T03:54:25;4.32;;;3.00;;
23632;SDS011;11993;48.748;9.166;2023-03-19T03:56:50;8.90;;;3.47;;
23632;SDS011;11993;48.748;9.166;2023-03-19T03:59:16;4.93;;;2.97;;
23632;SDS011;11993;48.748;9.166;2023-03-19T04:01:42;3.88;;;2.70;;
23632;SDS011;11993;48.748;9.166;2023-03-19T04:04:07;5.60;;;3.10;;
23632;SDS011;11993;48.748;9.166;2023-03-19T04:06:33;5.25;;;3.15;;
23632;SDS011;11993;48.748;9.166;2023-03-19T04:08:59;5.07;;;3.40;;
23632;SDS011;11993;48.748;9.166;2023-03-19T04:11:25;4.57;;;2.90;;
23632;SDS011;11993;48.748;9.166;2023-03-19T04:13:53;4.97;;;3.20;;
23632;SDS011;11993;48.748;9.166;2023-03-19T04:16:19;5.05;;;2.88;;
23632;SDS011;11993;48.748;9.166;2023-03-19T04:18:45;6.07;;;2.45;;
23632;SDS011;11993;48.748;9.166;2023-03-19T04:21:10;3.67;;;2.42;;
23632;SDS011;11993;48.748;9.166;2023-03-19T04:23:36;5.45;;;3.15;;
23632;SDS011;11993;48.748;9.166;2023-03-19T04:26:02;7.88;;;3.08;;
23632;SDS011;11993;48.748;9.166;2023-03-19T04:28:30;3.47;;;2.75;;
23632;SDS011;11993;48.748;9.166;2023-03-19T04:31:03;4.28;;;2.83;;
23632;SDS011;11993;48.748;9.166;2023-03-19T04:33:31;3.90;;;2.35;;
23632;SDS011;11993;48.748;9.166;2023-03-19T04:35:57;3.15;;;2.40;;
23632;SDS011;11993;48.748;9.166;2023-03-19T04:38:23;3.35;;;2.45;;
23632;SDS011;11993;48.748;9.166;2023-03-19T04:40:53;4.45;;;2.40;;
23632;SDS011;11993;48.748;9.166;2023-03-19T04:43:20;6.50;;;2.47;;
23632;SDS011;11993;48.748;9.166;2023-03-19T04:45:49;4.60;;;2.50;;
23632;SDS011;11993;48.748;9.166;2023-03-19T04:48:15;5.65;;;2.80;;
23632;SDS011;11993;48.748;9.166;2023-03-19T04:50:42;3.05;;;2.20;;
23632;SDS011;11993;48.748;9.166;2023-03-19T04:53:09;3.30;;;2.33;;
23632;SDS011;11993;48.748;9.166;2023-03-19T04:55:35;4.55;;;2.90;;
23632;SDS011;11993;48.748;9.166;2023-03-19T04:58:01;5.75;;;3.25;;
23632;SDS011;11993;48.748;9.166;2023-03-19T05:00:27;5.88;;;2.58;;
23632;SDS011;11993;48.748;9.166;2023-03-19T05:02:54;6.10;;;2.75;;
23632;SDS011;11993;48.748;9.166;2023-03-19T05:05:20;5.20;;;3.13;;
23632;SDS011;11993;48.748;9.166;2023-03-19T05:07:46;5.20;;;2.90;;
23632;SDS011;11993;48.748;9.166;2023-03-19T05:10:11;6.38;;;2.65;;
23632;SDS011;11993;48.748;9.166;2023-03-19T05:12:37;6.20;;;2.78;;
23632;SDS011;11993;48.748;9.166;2023-03-19T05:15:03;4.30;;;3.25;;
23632;SDS011;11993;48.748;9.166;2023-03-19T05:17:29;6.13;;;3.08;;
23632;SDS011;11993;48.748;9.166;2023-03-19T05:19:55;4.95;;;3.13;;
23632;SDS011;11993;48.748;9.166;2023-03-19T05:22:21;8.70;;;3.17;;
23632;SDS011;11993;48.748;9.166;2023-03-19T05:24:47;7.65;;;3.17;;
23632;SDS011;11993;48.748;9.166;2023-03-19T05:27:13;10.20;;;3.15;;
23632;SDS011;11993;48.748;9.166;2023-03-19T05:29:39;5.53;;;3.00;;
23632;SDS011;11993;48.748;9.166;2023-03-19T05:32:06;8.02;;;3.25;;
23632;SDS011;11993;48.748;9.166;2023-03-19T05:34:32;4.18;;;2.75;;
23632;SDS011;11993;48.748;9.166;2023-03-19T05:36:58;4.65;;;2.85;;
23632;SDS011;11993;48.748;9.166;2023-03-19T05:39:23;5.43;;;3.15;;
23632;SDS011;11993;48.748;9.166;2023-03-19T05:41:49;6.97;;;3.00;;
23632;SDS011;11993;48.748;9.166;2023-03-19T05:44:15;7.68;;;3.10;;
23632;SDS011;11993;48.748;9.166;2023-03-19T05:49:17;3.77;;;2.67;;
23632;SDS011;11993;48.748;9.166;2023-03-19T05:51:43;7.03;;;3.10;;
23632;SDS011;11993;48.748;9.166;2023-03-19T05:54:09;7.13;;;3.15;;
23632;SDS011;11993;48.748;9.166;2023-03-19T05:56:34;6.85;;;3.00;;
23632;SDS011;11993;48.748;9.166;2023-03-19T05:59:00;5.20;;;2.83;;
23632;SDS011;11993;48.748;9.166;2023-03-19T06:01:26;6.13;;;3.20;;
23632;SDS011;11993;48.748;9.166;2023-03-19T06:03:51;7.05;;;3.45;;
23632;SDS011;11993;48.748;9.166;2023-03-19T06:06:17;6.65;;;2.72;;
23632;SDS011;11993;48.748;9.166;2023-03-19T06:08:42;7.57;;;2.92;;
23632;SDS011;11993;48.748;9.166;2023-03-19T06:11:08;5.95;;;3.33;;
23632;SDS011;11993;48.748;9.166;2023-03-19T06:13:33;7.00;;;3.00;;
23632;SDS011;11993;48.748;9.166;2023-03-19T06:15:59;4.70;;;2.75;;
23632;SDS011;11993;48.748;9.166;2023-03-19T06:18:25;5.47;;;2.75;;
23632;SDS011;11993;48.748;9.166;2023-03-19T06:20:51;5.18;;;2.88;;
23632;SDS011;11993;48.748;9.166;2023-03-19T06:23:17;4.47;;;2.50;;
23632;SDS011;11993;48.748;9.166;2023-03-19T06:25:43;7.82;;;2.97;;
23632;SDS011;11993;48.748;9.166;2023-03-19T06:28:08;4.07;;;2.45;;
23632;SDS011;11993;48.748;9.166;2023-03-19T06:30:34;5.38;;;2.28;;
23632;SDS011;11993;48.748;9.166;2023-03-19T06:33:00;6.15;;;2.50;;
23632;SDS011;11993;48.748;9.166;2023-03-19T06:35:26;4.10;;;2.47;;
23632;SDS011;11993;48.748;9.166;2023-03-19T06:37:52;5.05;;;2.80;;
23632;SDS011;11993;48.748;9.166;2023-03-19T06:40:17;5.85;;;3.10;;
23632;SDS011;11993;48.748;9.166;2023-03-19T06:42:43;6.82;;;3.00;;
23632;SDS011;11993;48.748;9.166;2023-03-19T06:45:10;4.43;;;2.65;;
23632;SDS011;11993;48.748;9.166;2023-03-19T06:47:39;5.10;;;2.90;;
23632;SDS011;11993;48.748;9.166;2023-03-19T06:50:05;5.13;;;2.42;;
23632;SDS011;11993;48.748;9.166;2023-03-19T06:52:32;8.40;;;4.05;;
23632;SDS011;11993;48.748;9.166;2023-03-19T06:54:57;4.70;;;2.70;;
23632;SDS011;11993;48.748;9.166;2023-03-19T06:57:23;7.65;;;2.72;;
23632;SDS011;11993;48.748;9.166;2023-03-19T06:59:48;5.03;;;2.70;;
23632;SDS011;11993;48.748;9.166;2023-03-19T07:02:15;5.28;;;2.40;;
23632;SDS011;11993;48.748;9.166;2023-03-19T07:04:41;5.47;;;2.83;;
23632;SDS011;11993;48.748;9.166;2023-03-19T07:07:06;5.32;;;2.67;;
23632;SDS011;11993;48.748;9.166;2023-03-19T07:09:32;4.63;;;2.60;;
23632;SDS011;11993;48.748;9.166;2023-03-19T07:11:57;6.30;;;2.97;;
23632;SDS011;11993;48.748;9.166;2023-03-19T07:14:23;6.05;;;2.60;;
23632;SDS011;11993;48.748;9.166;2023-03-19T07:16:49;5.80;;;2.53;;
23632;SDS011;11993;48.748;9.166;2023-03-19T07:19:14;6.95;;;3.15;;
23632;SDS011;11993;48.748;9.166;2023-03-19T07:21:40;5.32;;;2.85;;
23632;SDS011;11993;48.748;9.166;2023-03-19T07:24:06;6.85;;;2.63;;
23632;SDS011;11993;48.748;9.166;2023-03-19T07:26:31;5.38;;;2.70;;
23632;SDS011;11993;48.748;9.166;2023-03-19T07:28:57;3.97;;;2.35;;
23632;SDS011;11993;48.748;9.166;2023-03-19T07:31:22;6.20;;;2.53;;
23632;SDS011;11993;48.748;9.166;2023-03-19T07:33:49;7.20;;;2.47;;
23632;SDS011;11993;48.748;9.166;2023-03-19T07:36:15;7.60;;;2.75;;
23632;SDS011;11993;48.748;9.166;2023-03-19T07:38:41;7.57;;;2.83;;
23632;SDS011;11993;48.748;9.166;2023-03-19T07:41:06;6.50;;;2.13;;
23632;SDS011;11993;48.748;9.166;2023-03-19T07:43:32;5.47;;;2.25;;
23632;SDS011;11993;48.748;9.166;2023-03-19T07:45:58;7.30;;;2.42;;
23632;SDS011;11993;48.748;9.166;2023-03-19T07:48:23;4.55;;;2.25;;
23632;SDS011;11993;48.748;9.166;2023-03-19T07:50:49;6.43;;;2.60;;
23632;SDS011;11993;48.748;9.166;2023-03-19T07:53:15;6.85;;;2.60;;
23632;SDS011;11993;48.748;9.166;2023-03-19T07:55:41;5.65;;;2.72;;
23632;SDS011;11993;48.748;9.166;2023-03-19T07:58:06;3.75;;;2.63;;
23632;SDS011;11993;48.748;9.166;2023-03-19T08:00:32;9.55;;;2.53;;
23632;SDS011;11993;48.748;9.166;2023-03-19T08:02:57;3.20;;;2.30;;
23632;SDS011;11993;48.748;9.166;2023-03-19T08:05:23;5.65;;;2.72;;
23632;SDS011;11993;48.748;9.166;2023-03-19T08:07:49;7.05;;;2.88;;
23632;SDS011;11993;48.748;9.166;2023-03-19T08:10:15;4.72;;;2.70;;
23632;SDS011;11993;48.748;9.166;2023-03-19T08:12:41;5.30;;;2.80;;
23632;SDS011;11993;48.748;9.166;2023-03-19T08:15:08;4.97;;;2.65;;
23632;SDS011;11993;48.748;9.166;2023-03-19T08:17:35;3.55;;;2.30;;
23632;SDS011;11993;48.748;9.166;2023-03-19T08:20:06;6.00;;;2.38;;
23632;SDS011;11993;48.748;9.166;2023-03-19T08:22:36;4.20;;;2.15;;
23632;SDS011;11993;48.748;9.166;2023-03-19T08:25:03;4.10;;;2.40;;
23632;SDS011;11993;48.748;9.166;2023-03-19T08:27:30;3.10;;;2.13;;
23632;SDS011;11993;48.748;9.166;2023-03-19T08:29:58;7.97;;;2.40;;
23632;SDS011;11993;48.748;9.166;2023-03-19T08:32:23;4.22;;;2.40;;
23632;SDS011;11993;48.748;9.166;2023-03-19T08:34:49;4.55;;;2.30;;
23632;SDS011;11993;48.748;9.166;2023-03-19T08:37:16;10.45;;;2.60;;
23632;SDS011;11993;48.748;9.166;2023-03-19T08:39:42;9.77;;;5.30;;
23632;SDS011;11993;48.748;9.166;2023-03-19T08:42:08;6.93;;;2.85;;
23632;SDS011;11993;48.748;9.166;2023-03-19T08:44:34;6.03;;;3.20;;
23632;SDS011;11993;48.748;9.166;2023-03-19T08:46:59;8.90;;;3.53;;
23632;SDS011;11993;48.748;9.166;2023-03-19T08:49:25;6.25;;;2.92;;
23632;SDS011;11993;48.748;9.166;2023-03-19T08:51:51;5.95;;;3.10;;
23632;SDS011;11993;48.748;9.166;2023-03-19T08:54:16;4.75;;;2.75;;
23632;SDS011;11993;48.748;9.166;2023-03-19T08:56:42;6.18;;;2.60;;
23632;SDS011;11993;48.748;9.166;2023-03-19T08:59:07;6.43;;;2.88;;
23632;SDS011;11993;48.748;9.166;2023-03-19T09:01:33;7.60;;;2.97;;
23632;SDS011;11993;48.748;9.166;2023-03-19T09:03:59;4.60;;;2.53;;
23632;SDS011;11993;48.748;9.166;2023-03-19T09:06:25;6.15;;;2.85;;
23632;SDS011;11993;48.748;9.166;2023-03-19T09:08:50;3.90;;;2.47;;
23632;SDS011;11993;48.748;9.166;2023-03-19T09:11:16;4.45;;;2.53;;
23632;SDS011;11993;48.748;9.166;2023-03-19T09:13:42;3.58;;;2.25;;
23632;SDS011;11993;48.748;9.166;2023-03-19T09:16:08;6.40;;;2.58;;
23632;SDS011;11993;48.748;9.166;2023-03-19T09:18:33;4.57;;;2.10;;
23632;SDS011;11993;48.748;9.166;2023-03-19T09:20:59;3.90;;;2.22;;
23632;SDS011;11993;48.748;9.166;2023-03-19T09:23:25;4.55;;;2.60;;
23632;SDS011;11993;48.748;9.166;2023-03-19T09:25:51;7.57;;;2.55;;
23632;SDS011;11993;48.748;9.166;2023-03-19T09:28:17;8.43;;;2.50;;
23632;SDS011;11993;48.748;9.166;2023-03-19T09:30:46;4.20;;;2.42;;
23632;SDS011;11993;48.748;9.166;2023-03-19T09:33:13;5.30;;;2.60;;
23632;SDS011;11993;48.748;9.166;2023-03-19T09:35:40;5.35;;;2.70;;
23632;SDS011;11993;48.748;9.166;2023-03-19T09:38:06;7.05;;;2.10;;
23632;SDS011;11993;48.748;9.166;2023-03-19T09:40:40;7.15;;;2.42;;
23632;SDS011;11993;48.748;9.166;2023-03-19T09:43:18;3.83;;;2.30;;
23632;SDS011;11993;48.748;9.166;2023-03-19T09:46:15;5.00;;;2.03;;
23632;SDS011;11993;48.748;9.166;2023-03-19T09:48:57;5.85;;;2.15;;
23632;SDS011;11993;48.748;9.166;2023-03-19T09:51:49;7.88;;;2.22;;
23632;SDS011;11993;48.748;9.166;2023-03-19T09:54:24;3.78;;;1.80;;
23632;SDS011;11993;48.748;9.166;2023-03-19T09:56:55;5.10;;;1.80;;
23632;SDS011;11993;48.748;9.166;2023-03-19T09:59:21;4.38;;;1.60;;
23632;SDS011;11993;48.748;9.166;2023-03-19T10:02:36;2.60;;;1.75;;
23632;SDS011;11993;48.748;9.166;2023-03-19T10:07:18;5.30;;;1.98;;
23632;SDS011;11993;48.748;9.166;2023-03-19T10:15:44;3.78;;;1.73;;
23632;SDS011;11993;48.748;9.166;2023-03-19T10:18:15;4.05;;;1.77;;
23632;SDS011;11993;48.748;9.166;2023-03-19T10:26:07;4.53;;;2.25;;
23632;SDS011;11993;48.748;9.166;2023-03-19T10:28:36;3.30;;;2.03;;
23632;SDS011;11993;48.748;9.166;2023-03-19T10:31:11;4.90;;;2.08;;
23632;SDS011;11993;48.748;9.166;2023-03-19T10:33:43;5.07;;;2.00;;
23632;SDS011;11993;48.748;9.166;2023-03-19T10:36:34;4.35;;;1.90;;
23632;SDS011;11993;48.748;9.166;2023-03-19T10:39:00;6.82;;;2.08;;
23632;SDS011;11993;48.748;9.166;2023-03-19T10:41:30;2.65;;;1.70;;
23632;SDS011;11993;48.748;9.166;2023-03-19T10:44:31;5.05;;;1.88;;
23632;SDS011;11993;48.748;9.166;2023-03-19T10:47:13;4.07;;;1.80;;
23632;SDS011;11993;48.748;9.166;2023-03-19T10:49:40;7.70;;;1.50;;
23632;SDS011;11993;48.748;9.166;2023-03-19T10:52:20;5.28;;;1.88;;
23632;SDS011;11993;48.748;9.166;2023-03-19T10:54:56;7.07;;;1.98;;
23632;SDS011;11993;48.748;9.166;2023-03-19T10:57:28;4.00;;;1.67;;
23632;SDS011;11993;48.748;9.166;2023-03-19T11:00:02;4.13;;;1.73;;
23632;SDS011;11993;48.748;9.166;2023-03-19T11:02:32;4.22;;;2.17;;
23632;SDS011;11993;48.748;9.166;2023-03-19T11:05:07;6.65;;;2.17;;
23632;SDS011;11993;48.748;9.166;2023-03-19T11:07:54;4.15;;;2.10;;
23632;SDS011;11993;48.748;9.166;2023-03-19T11:10:27;3.95;;;1.80;;
23632;SDS011;11993;48.748;9.166;2023-03-19T11:15:45;4.15;;;1.60;;
23632;SDS011;11993;48.748;9.166;2023-03-19T11:18:15;4.53;;;2.10;;
23632;SDS011;11993;48.748;9.166;2023-03-19T11:21:00;5.00;;;2.10;;
23632;SDS011;11993;48.748;9.166;2023-03-19T11:23:36;3.50;;;1.90;;
23632;SDS011;11993;48.748;9.166;2023-03-19T11:26:04;3.63;;;2.05;;
23632;SDS011;11993;48.748;9.166;2023-03-19T11:28:29;4.32;;;1.90;;
23632;SDS011;11993;48.748;9.166;2023-03-19T11:31:05;3.63;;;1.95;;
23632;SDS011;11993;48.748;9.166;2023-03-19T11:36:54;3.70;;;1.65;;
23632;SDS011;11993;48.748;9.166;2023-03-19T11:39:29;6.05;;;1.77;;
23632;SDS011;11993;48.748;9.166;2023-03-19T11:50:43;5.00;;;1.98;;
23632;SDS011;11993;48.748;9.166;2023-03-19T11:56:20;3.20;;;1.60;;
23632;SDS011;11993;48.748;9.166;2023-03-19T12:02:16;3.30;;;1.85;;
23632;SDS011;11993;48.748;9.166;2023-03-19T12:07:55;3.00;;;1.80;;
23632;SDS011;11993;48.748;9.166;2023-03-19T12:10:26;6.10;;;1.95;;
23632;SDS011;11993;48.748;9.166;2023-03-19T12:12:57;5.28;;;1.92;;
23632;SDS011;11993;48.748;9.166;2023-03-19T12:19:05;5.22;;;2.00;;
23632;SDS011;11993;48.748;9.166;2023-03-19T12:22:03;5.18;;;2.20;;
23632;SDS011;11993;48.748;9.166;2023-03-19T12:24:34;3.65;;;1.95;;
23632;SDS011;11993;48.748;9.166;2023-03-19T12:30:11;4.18;;;1.73;;
23632;SDS011;11993;48.748;9.166;2023-03-19T12:35:25;4.40;;;2.05;;
23632;SDS011;11993;48.748;9.166;2023-03-19T12:38:19;3.65;;;1.70;;
23632;SDS011;11993;48.748;9.166;2023-03-19T12:40:58;6.07;;;1.77;;
23632;SDS011;11993;48.748;9.166;2023-03-19T12:43:31;4.20;;;1.63;;
23632;SDS011;11993;48.748;9.166;2023-03-19T12:46:08;5.72;;;1.90;;
23632;SDS011;11993;48.748;9.166;2023-03-19T12:48:43;3.90;;;2.05;;
23632;SDS011;11993;48.748;9.166;2023-03-19T12:51:14;4.35;;;1.80;;
23632;SDS011;11993;48.748;9.166;2023-03-19T12:56:18;3.85;;;1.95;;
23632;SDS011;11993;48.748;9.166;2023-03-19T13:01:42;3.53;;;1.60;;
23632;SDS011;11993;48.748;9.166;2023-03-19T13:04:15;3.25;;;1.92;;
23632;SDS011;11993;48.748;9.166;2023-03-19T13:06:52;5.72;;;1.83;;
23632;SDS011;11993;48.748;9.166;2023-03-19T13:09:49;4.13;;;1.80;;
23632;SDS011;11993;48.748;9.166;2023-03-19T13:12:24;7.32;;;1.80;;
23632;SDS011;11993;48.748;9.166;2023-03-19T13:22:55;4.07;;;1.92;;
23632;SDS011;11993;48.748;9.166;2023-03-19T13:25:29;3.42;;;1.70;;
23632;SDS011;11993;48.748;9.166;2023-03-19T13:28:08;5.88;;;1.50;;
23632;SDS011;11993;48.748;9.166;2023-03-19T13:30:36;3.58;;;1.48;;
23632;SDS011;11993;48.748;9.166;2023-03-19T13:33:04;4.20;;;1.60;;
23632;SDS011;11993;48.748;9.166;2023-03-19T13:35:42;5.35;;;2.10;;
23632;SDS011;11993;48.748;9.166;2023-03-19T13:43:19;3.25;;;1.85;;
23632;SDS011;11993;48.748;9.166;2023-03-19T13:46:02;2.55;;;1.30;;
23632;SDS011;11993;48.748;9.166;2023-03-19T13:56:24;5.47;;;1.60;;
23632;SDS011;11993;48.748;9.166;2023-03-19T13:58:54;3.40;;;1.70;;
23632;SDS011;11993;48.748;9.166;2023-03-19T14:01:48;4.05;;;1.80;;
23632;SDS011;11993;48.748;9.166;2023-03-19T14:04:18;4.25;;;1.50;;
23632;SDS011;11993;48.748;9.166;2023-03-19T14:06:48;3.25;;;1.42;;
23632;SDS011;11993;48.748;9.166;2023-03-19T14:09:26;6.55;;;1.70;;
23632;SDS011;11993;48.748;9.166;2023-03-19T14:11:52;5.95;;;1.70;;
23632;SDS011;11993;48.748;9.166;2023-03-19T14:14:18;3.65;;;1.50;;
23632;SDS011;11993;48.748;9.166;2023-03-19T14:16:47;4.22;;;1.63;;
23632;SDS011;11993;48.748;9.166;2023-03-19T14:19:16;4.20;;;1.60;;
23632;SDS011;11993;48.748;9.166;2023-03-19T14:26:57;5.75;;;1.73;;
23632;SDS011;11993;48.748;9.166;2023-03-19T14:29:36;6.63;;;2.20;;
23632;SDS011;11993;48.748;9.166;2023-03-19T14:32:08;6.00;;;1.88;;
23632;SDS011;11993;48.748;9.166;2023-03-19T14:34:45;6.95;;;2.10;;
23632;SDS011;11993;48.748;9.166;2023-03-19T14:40:02;7.78;;;2.10;;
23632;SDS011;11993;48.748;9.166;2023-03-19T14:42:51;4.97;;;1.52;;
23632;SDS011;11993;48.748;9.166;2023-03-19T14:53:58;2.60;;;1.10;;
23632;SDS011;11993;48.748;9.166;2023-03-19T14:56:30;4.20;;;2.15;;
23632;SDS011;11993;48.748;9.166;2023-03-19T14:58:58;10.23;;;5.43;;
23632;SDS011;11993;48.748;9.166;2023-03-19T15:01:30;13.75;;;5.00;;
23632;SDS011;11993;48.748;9.166;2023-03-19T15:04:07;4.68;;;2.00;;
23632;SDS011;11993;48.748;9.166;2023-03-19T15:06:38;3.05;;;1.70;;
23632;SDS011;11993;48.748;9.166;2023-03-19T15:09:11;2.70;;;1.38;;
23632;SDS011;11993;48.748;9.166;2023-03-19T15:11:47;5.25;;;1.45;;
23632;SDS011;11993;48.748;9.166;2023-03-19T15:19:48;3.65;;;1.40;;
23632;SDS011;11993;48.748;9.166;2023-03-19T15:22:19;2.03;;;1.45;;
23632;SDS011;11993;48.748;9.166;2023-03-19T15:24:49;3.88;;;1.63;;
23632;SDS011;11993;48.748;9.166;2023-03-19T15:27:19;6.22;;;1.80;;
23632;SDS011;11993;48.748;9.166;2023-03-19T15:29:47;6.03;;;2.15;;
23632;SDS011;11993;48.748;9.166;2023-03-19T15:32:28;5.13;;;1.90;;
23632;SDS011;11993;48.748;9.166;2023-03-19T15:34:56;2.75;;;1.48;;
23632;SDS011;11993;48.748;9.166;2023-03-19T15:37:21;6.32;;;1.83;;
23632;SDS011;11993;48.748;9.166;2023-03-19T15:39:50;4.30;;;1.83;;
23632;SDS011;11993;48.748;9.166;2023-03-19T15:42:19;6.97;;;1.63;;
23632;SDS011;11993;48.748;9.166;2023-03-19T15:44:48;9.07;;;1.77;;
23632;SDS011;11993;48.748;9.166;2023-03-19T15:47:32;4.55;;;1.80;;
23632;SDS011;11993;48.748;9.166;2023-03-19T15:50:03;5.13;;;1.70;;
23632;SDS011;11993;48.748;9.166;2023-03-19T15:55:02;2.75;;;1.63;;
23632;SDS011;11993;48.748;9.166;2023-03-19T15:57:28;6.30;;;1.88;;
23632;SDS011;11993;48.748;9.166;2023-03-19T15:59:55;3.25;;;1.65;;
23632;SDS011;11993;48.748;9.166;2023-03-19T16:02:29;6.68;;;1.80;;
23632;SDS011;11993;48.748;9.166;2023-03-19T16:04:57;5.60;;;1.73;;
23632;SDS011;11993;48.748;9.166;2023-03-19T16:09:59;4.78;;;1.95;;
23632;SDS011;11993;48.748;9.166;2023-03-19T16:12:48;3.28;;;2.10;;
23632;SDS011;11993;48.748;9.166;2023-03-19T16:15:22;5.65;;;2.22;;
23632;SDS011;11993;48.748;9.166;2023-03-19T16:17:48;6.90;;;1.98;;
23632;SDS011;11993;48.748;9.166;2023-03-19T16:20:14;3.78;;;1.83;;
23632;SDS011;11993;48.748;9.166;2023-03-19T16:22:40;6.47;;;2.17;;
23632;SDS011;11993;48.748;9.166;2023-03-19T16:25:16;6.97;;;2.30;;
23632;SDS011;11993;48.748;9.166;2023-03-19T16:27:43;9.55;;;2.88;;
23632;SDS011;11993;48.748;9.166;2023-03-19T16:30:20;8.85;;;2.92;;
23632;SDS011;11993;48.748;9.166;2023-03-19T16:33:01;8.48;;;2.20;;
23632;SDS011;11993;48.748;9.166;2023-03-19T16:35:28;7.05;;;2.60;;
23632;SDS011;11993;48.748;9.166;2023-03-19T16:40:48;9.98;;;2.88;;
23632;SDS011;11993;48.748;9.166;2023-03-19T16:43:35;7.15;;;3.10;;
23632;SDS011;11993;48.748;9.166;2023-03-19T16:46:09;5.20;;;2.70;;
23632;SDS011;11993;48.748;9.166;2023-03-19T16:48:36;4.63;;;2.70;;